sensor_id;sensor_type;location;lat;lon;timestamp;temperature;humidity
2162;DHT22;1087;50.226;8.682;2022-10-18T00:02:13;18.70;99.90
2162;DHT22;1087;50.226;8.682;2022-10-18T00:04:38;18.70;99.90
2162;DHT22;1087;50.226;8.682;2022-10-18T00:07:04;18.60;99.90
2162;DHT22;1087;50.226;8.682;2022-10-18T00:09:30;18.60;99.90
2162;DHT22;1087;50.226;8.682;2022-10-18T00:11:56;18.60;99.90
2162;DHT22;1087;50.226;8.682;2022-10-18T00:14:22;18.60;99.90
2162;DHT22;1087;50.226;8.682;2022-10-18T00:16:47;18.70;99.90
2162;DHT22;1087;50.226;8.682;2022-10-18T00:19:13;18.70;99.90
2162;DHT22;1087;50.226;8.682;2022-10-18T00:21:38;18.70;99.90
2162;DHT22;1087;50.226;8.682;2022-10-18T00:24:04;18.70;99.90
2162;DHT22;1087;50.226;8.682;2022-10-18T00:26:30;18.70;99.90
2162;DHT22;1087;50.226;8.682;2022-10-18T00:29:02;18.70;99.90
2162;DHT22;1087;50.226;8.682;2022-10-18T00:31:34;18.60;99.90
2162;DHT22;1087;50.226;8.682;2022-10-18T00:34:03;18.60;99.90
2162;DHT22;1087;50.226;8.682;2022-10-18T00:36:30;18.60;99.90
2162;DHT22;1087;50.226;8.682;2022-10-18T00:38:57;18.60;99.90
2162;DHT22;1087;50.226;8.682;2022-10-18T00:41:25;18.60;99.90
2162;DHT22;1087;50.226;8.682;2022-10-18T00:46:40;18.30;99.90
2162;DHT22;1087;50.226;8.682;2022-10-18T00:49:15;18.40;99.90
2162;DHT22;1087;50.226;8.682;2022-10-18T00:51:52;18.40;99.90
2162;DHT22;1087;50.226;8.682;2022-10-18T00:54:21;18.40;99.90
2162;DHT22;1087;50.226;8.682;2022-10-18T00:56:47;18.30;99.90
2162;DHT22;1087;50.226;8.682;2022-10-18T00:59:15;18.40;99.90
2162;DHT22;1087;50.226;8.682;2022-10-18T01:01:41;18.40;99.90
2162;DHT22;1087;50.226;8.682;2022-10-18T01:04:06;18.50;99.90
2162;DHT22;1087;50.226;8.682;2022-10-18T01:06:37;18.50;99.90
2162;DHT22;1087;50.226;8.682;2022-10-18T01:12:30;18.40;99.90
2162;DHT22;1087;50.226;8.682;2022-10-18T01:23:00;18.50;99.90
2162;DHT22;1087;50.226;8.682;2022-10-18T01:26:01;18.40;99.90
2162;DHT22;1087;50.226;8.682;2022-10-18T01:31:14;18.40;99.90
2162;DHT22;1087;50.226;8.682;2022-10-18T01:33:51;18.40;99.90
2162;DHT22;1087;50.226;8.682;2022-10-18T01:36:31;18.30;99.90
2162;DHT22;1087;50.226;8.682;2022-10-18T01:39:00;18.40;99.90
2162;DHT22;1087;50.226;8.682;2022-10-18T01:41:27;18.40;99.90
2162;DHT22;1087;50.226;8.682;2022-10-18T01:43:57;18.50;99.90
2162;DHT22;1087;50.226;8.682;2022-10-18T01:46:24;18.40;99.90
2162;DHT22;1087;50.226;8.682;2022-10-18T01:48:51;18.30;99.90
2162;DHT22;1087;50.226;8.682;2022-10-18T01:51:19;18.30;99.90
2162;DHT22;1087;50.226;8.682;2022-10-18T01:53:44;18.20;99.90
2162;DHT22;1087;50.226;8.682;2022-10-18T01:59:39;18.30;99.90
2162;DHT22;1087;50.226;8.682;2022-10-18T02:04:50;18.40;99.90
2162;DHT22;1087;50.226;8.682;2022-10-18T02:07:42;18.40;99.90
2162;DHT22;1087;50.226;8.682;2022-10-18T02:10:14;18.40;99.90
2162;DHT22;1087;50.226;8.682;2022-10-18T02:12:43;18.40;99.90
2162;DHT22;1087;50.226;8.682;2022-10-18T02:15:13;18.30;99.90
2162;DHT22;1087;50.226;8.682;2022-10-18T02:17:40;18.30;99.90
2162;DHT22;1087;50.226;8.682;2022-10-18T02:20:08;18.20;99.90
2162;DHT22;1087;50.226;8.682;2022-10-18T02:22:35;18.30;99.90
2162;DHT22;1087;50.226;8.682;2022-10-18T02:25:04;18.30;99.90
2162;DHT22;1087;50.226;8.682;2022-10-18T02:27:30;18.30;99.90
2162;DHT22;1087;50.226;8.682;2022-10-18T02:29:56;18.30;99.90
2162;DHT22;1087;50.226;8.682;2022-10-18T02:32:52;18.40;99.90
2162;DHT22;1087;50.226;8.682;2022-10-18T02:35:25;18.40;99.90
2162;DHT22;1087;50.226;8.682;2022-10-18T02:37:54;18.50;99.90
2162;DHT22;1087;50.226;8.682;2022-10-18T02:40:21;18.40;99.90
2162;DHT22;1087;50.226;8.682;2022-10-18T02:42:49;18.40;99.90
2162;DHT22;1087;50.226;8.682;2022-10-18T02:45:16;18.40;99.90
2162;DHT22;1087;50.226;8.682;2022-10-18T02:47:41;18.40;99.90
2162;DHT22;1087;50.226;8.682;2022-10-18T02:50:08;18.40;99.90
2162;DHT22;1087;50.226;8.682;2022-10-18T02:52:33;18.30;99.90
2162;DHT22;1087;50.226;8.682;2022-10-18T02:54:59;18.10;99.90
2162;DHT22;1087;50.226;8.682;2022-10-18T02:57:26;18.20;99.90
2162;DHT22;1087;50.226;8.682;2022-10-18T02:59:51;18.20;99.90
2162;DHT22;1087;50.226;8.682;2022-10-18T03:02:17;18.20;99.90
2162;DHT22;1087;50.226;8.682;2022-10-18T03:04:42;18.20;99.90
2162;DHT22;1087;50.226;8.682;2022-10-18T03:07:08;18.30;99.90
2162;DHT22;1087;50.226;8.682;2022-10-18T03:09:33;18.30;99.90
2162;DHT22;1087;50.226;8.682;2022-10-18T03:11:59;18.30;99.90
2162;DHT22;1087;50.226;8.682;2022-10-18T03:14:24;18.30;99.90
2162;DHT22;1087;50.226;8.682;2022-10-18T03:16:50;18.30;99.90
2162;DHT22;1087;50.226;8.682;2022-10-18T03:19:15;18.40;99.90
2162;DHT22;1087;50.226;8.682;2022-10-18T03:21:41;18.40;99.90
2162;DHT22;1087;50.226;8.682;2022-10-18T03:24:06;18.40;99.90
2162;DHT22;1087;50.226;8.682;2022-10-18T03:26:32;18.40;99.90
2162;DHT22;1087;50.226;8.682;2022-10-18T03:28:57;18.40;99.90
2162;DHT22;1087;50.226;8.682;2022-10-18T03:31:23;18.40;99.90
2162;DHT22;1087;50.226;8.682;2022-10-18T03:33:48;18.40;99.90
2162;DHT22;1087;50.226;8.682;2022-10-18T03:36:14;18.30;99.90
2162;DHT22;1087;50.226;8.682;2022-10-18T03:38:40;18.20;99.90
2162;DHT22;1087;50.226;8.682;2022-10-18T03:41:05;18.20;99.90
2162;DHT22;1087;50.226;8.682;2022-10-18T03:43:31;18.10;99.90
2162;DHT22;1087;50.226;8.682;2022-10-18T03:45:56;18.10;99.90
2162;DHT22;1087;50.226;8.682;2022-10-18T03:48:22;18.10;99.90
2162;DHT22;1087;50.226;8.682;2022-10-18T03:50:48;18.10;99.90
2162;DHT22;1087;50.226;8.682;2022-10-18T03:53:13;18.10;99.90
2162;DHT22;1087;50.226;8.682;2022-10-18T03:55:39;18.10;99.90
2162;DHT22;1087;50.226;8.682;2022-10-18T03:58:05;18.10;99.90
2162;DHT22;1087;50.226;8.682;2022-10-18T04:00:30;18.20;99.90
2162;DHT22;1087;50.226;8.682;2022-10-18T04:02:56;18.20;99.90
2162;DHT22;1087;50.226;8.682;2022-10-18T04:05:22;18.20;99.90
2162;DHT22;1087;50.226;8.682;2022-10-18T04:07:56;18.20;99.90
2162;DHT22;1087;50.226;8.682;2022-10-18T04:10:22;18.20;99.90
2162;DHT22;1087;50.226;8.682;2022-10-18T04:12:47;18.20;99.90
2162;DHT22;1087;50.226;8.682;2022-10-18T04:15:13;18.20;99.90
2162;DHT22;1087;50.226;8.682;2022-10-18T04:17:38;18.10;99.90
2162;DHT22;1087;50.226;8.682;2022-10-18T04:20:04;18.10;99.90
2162;DHT22;1087;50.226;8.682;2022-10-18T04:22:30;18.20;99.90
2162;DHT22;1087;50.226;8.682;2022-10-18T04:24:55;18.30;99.90
2162;DHT22;1087;50.226;8.682;2022-10-18T04:27:22;18.20;99.90
2162;DHT22;1087;50.226;8.682;2022-10-18T04:29:47;18.10;99.90
2162;DHT22;1087;50.226;8.682;2022-10-18T04:32:13;18.00;99.90
2162;DHT22;1087;50.226;8.682;2022-10-18T04:34:38;18.00;99.90
2162;DHT22;1087;50.226;8.682;2022-10-18T04:37:04;18.10;99.90
2162;DHT22;1087;50.226;8.682;2022-10-18T04:39:29;18.20;99.90
2162;DHT22;1087;50.226;8.682;2022-10-18T04:41:55;18.20;99.90
2162;DHT22;1087;50.226;8.682;2022-10-18T04:44:20;18.20;99.90
2162;DHT22;1087;50.226;8.682;2022-10-18T04:46:46;18.30;99.90
2162;DHT22;1087;50.226;8.682;2022-10-18T04:49:11;18.30;99.90
2162;DHT22;1087;50.226;8.682;2022-10-18T04:51:37;18.30;99.90
2162;DHT22;1087;50.226;8.682;2022-10-18T04:54:03;18.40;99.90
2162;DHT22;1087;50.226;8.682;2022-10-18T04:56:28;18.40;99.90
2162;DHT22;1087;50.226;8.682;2022-10-18T04:58:53;18.40;99.90
2162;DHT22;1087;50.226;8.682;2022-10-18T05:01:19;18.40;99.90
2162;DHT22;1087;50.226;8.682;2022-10-18T05:03:44;18.40;99.90
2162;DHT22;1087;50.226;8.682;2022-10-18T05:06:10;18.40;99.90
2162;DHT22;1087;50.226;8.682;2022-10-18T05:08:36;18.40;99.90
2162;DHT22;1087;50.226;8.682;2022-10-18T05:11:02;18.40;99.90
2162;DHT22;1087;50.226;8.682;2022-10-18T05:13:28;18.40;99.90
2162;DHT22;1087;50.226;8.682;2022-10-18T05:15:54;18.40;99.90
2162;DHT22;1087;50.226;8.682;2022-10-18T05:18:20;18.40;99.90
2162;DHT22;1087;50.226;8.682;2022-10-18T05:20:46;18.40;99.90
2162;DHT22;1087;50.226;8.682;2022-10-18T05:23:11;18.50;99.90
2162;DHT22;1087;50.226;8.682;2022-10-18T05:25:38;18.40;99.90
2162;DHT22;1087;50.226;8.682;2022-10-18T05:28:04;18.40;99.90
2162;DHT22;1087;50.226;8.682;2022-10-18T05:30:30;18.40;99.90
2162;DHT22;1087;50.226;8.682;2022-10-18T05:32:55;18.40;99.90
2162;DHT22;1087;50.226;8.682;2022-10-18T05:35:21;18.40;99.90
2162;DHT22;1087;50.226;8.682;2022-10-18T05:37:46;18.40;99.90
2162;DHT22;1087;50.226;8.682;2022-10-18T05:40:12;18.40;99.90
2162;DHT22;1087;50.226;8.682;2022-10-18T05:42:38;18.40;99.90
2162;DHT22;1087;50.226;8.682;2022-10-18T05:45:04;18.40;99.90
2162;DHT22;1087;50.226;8.682;2022-10-18T05:47:29;18.40;99.90
2162;DHT22;1087;50.226;8.682;2022-10-18T05:49:55;18.30;99.90
2162;DHT22;1087;50.226;8.682;2022-10-18T05:52:20;18.30;99.90
2162;DHT22;1087;50.226;8.682;2022-10-18T05:54:46;18.30;99.90
2162;DHT22;1087;50.226;8.682;2022-10-18T05:57:11;18.30;99.90
2162;DHT22;1087;50.226;8.682;2022-10-18T05:59:37;18.30;99.90
2162;DHT22;1087;50.226;8.682;2022-10-18T06:02:02;18.30;99.90
2162;DHT22;1087;50.226;8.682;2022-10-18T06:04:28;18.30;99.90
2162;DHT22;1087;50.226;8.682;2022-10-18T06:06:53;18.30;99.90
2162;DHT22;1087;50.226;8.682;2022-10-18T06:09:20;18.30;99.90
2162;DHT22;1087;50.226;8.682;2022-10-18T06:11:45;18.30;99.90
2162;DHT22;1087;50.226;8.682;2022-10-18T06:14:11;18.30;99.90
2162;DHT22;1087;50.226;8.682;2022-10-18T06:16:36;18.30;99.90
2162;DHT22;1087;50.226;8.682;2022-10-18T06:19:02;18.20;99.90
2162;DHT22;1087;50.226;8.682;2022-10-18T06:21:27;18.20;99.90
2162;DHT22;1087;50.226;8.682;2022-10-18T06:23:57;18.20;99.90
2162;DHT22;1087;50.226;8.682;2022-10-18T06:26:25;18.20;99.90
2162;DHT22;1087;50.226;8.682;2022-10-18T06:28:51;18.20;99.90
2162;DHT22;1087;50.226;8.682;2022-10-18T06:31:16;18.20;99.90
2162;DHT22;1087;50.226;8.682;2022-10-18T06:33:42;18.20;99.90
2162;DHT22;1087;50.226;8.682;2022-10-18T06:36:12;18.20;99.90
2162;DHT22;1087;50.226;8.682;2022-10-18T06:38:38;18.10;99.90
2162;DHT22;1087;50.226;8.682;2022-10-18T06:41:05;18.10;99.90
2162;DHT22;1087;50.226;8.682;2022-10-18T06:43:31;18.10;99.90
2162;DHT22;1087;50.226;8.682;2022-10-18T06:45:56;18.10;99.90
2162;DHT22;1087;50.226;8.682;2022-10-18T06:48:22;18.10;99.90
2162;DHT22;1087;50.226;8.682;2022-10-18T06:50:56;18.00;99.90
2162;DHT22;1087;50.226;8.682;2022-10-18T06:53:23;18.00;99.90
2162;DHT22;1087;50.226;8.682;2022-10-18T06:55:49;18.10;99.90
2162;DHT22;1087;50.226;8.682;2022-10-18T06:58:15;18.10;99.90
2162;DHT22;1087;50.226;8.682;2022-10-18T07:00:40;18.10;99.90
2162;DHT22;1087;50.226;8.682;2022-10-18T07:03:06;18.00;99.90
2162;DHT22;1087;50.226;8.682;2022-10-18T07:05:31;18.00;99.90
2162;DHT22;1087;50.226;8.682;2022-10-18T07:07:57;18.00;99.90
2162;DHT22;1087;50.226;8.682;2022-10-18T07:10:23;18.00;99.90
2162;DHT22;1087;50.226;8.682;2022-10-18T07:12:49;18.00;99.90
2162;DHT22;1087;50.226;8.682;2022-10-18T07:15:15;18.10;99.90
2162;DHT22;1087;50.226;8.682;2022-10-18T07:17:42;18.10;99.90
2162;DHT22;1087;50.226;8.682;2022-10-18T07:20:10;18.10;99.90
2162;DHT22;1087;50.226;8.682;2022-10-18T07:22:36;18.10;99.90
2162;DHT22;1087;50.226;8.682;2022-10-18T07:25:04;18.20;99.90
2162;DHT22;1087;50.226;8.682;2022-10-18T07:27:29;18.20;99.90
2162;DHT22;1087;50.226;8.682;2022-10-18T07:29:55;18.20;99.90
2162;DHT22;1087;50.226;8.682;2022-10-18T07:32:20;18.20;99.90
2162;DHT22;1087;50.226;8.682;2022-10-18T07:34:46;18.20;99.90
2162;DHT22;1087;50.226;8.682;2022-10-18T07:37:11;18.20;99.90
2162;DHT22;1087;50.226;8.682;2022-10-18T07:39:37;18.20;99.90
2162;DHT22;1087;50.226;8.682;2022-10-18T07:42:02;18.30;99.90
2162;DHT22;1087;50.226;8.682;2022-10-18T07:44:28;18.30;99.90
2162;DHT22;1087;50.226;8.682;2022-10-18T07:46:53;18.30;99.90
2162;DHT22;1087;50.226;8.682;2022-10-18T07:49:19;18.30;99.90
2162;DHT22;1087;50.226;8.682;2022-10-18T07:51:44;18.30;99.90
2162;DHT22;1087;50.226;8.682;2022-10-18T07:54:10;18.30;99.90
2162;DHT22;1087;50.226;8.682;2022-10-18T07:56:35;18.30;99.90
2162;DHT22;1087;50.226;8.682;2022-10-18T07:59:01;18.30;99.90
2162;DHT22;1087;50.226;8.682;2022-10-18T08:01:26;18.30;99.90
2162;DHT22;1087;50.226;8.682;2022-10-18T08:03:52;18.30;99.90
2162;DHT22;1087;50.226;8.682;2022-10-18T08:06:19;18.30;99.90
2162;DHT22;1087;50.226;8.682;2022-10-18T08:08:45;18.40;99.90
2162;DHT22;1087;50.226;8.682;2022-10-18T08:11:22;18.30;99.90
2162;DHT22;1087;50.226;8.682;2022-10-18T08:13:48;18.30;99.90
2162;DHT22;1087;50.226;8.682;2022-10-18T08:16:19;18.40;99.90
2162;DHT22;1087;50.226;8.682;2022-10-18T08:18:45;18.30;99.90
2162;DHT22;1087;50.226;8.682;2022-10-18T08:21:12;18.30;99.90
2162;DHT22;1087;50.226;8.682;2022-10-18T08:23:40;18.40;99.90
2162;DHT22;1087;50.226;8.682;2022-10-18T08:26:09;18.40;99.90
2162;DHT22;1087;50.226;8.682;2022-10-18T08:28:35;18.40;99.90
2162;DHT22;1087;50.226;8.682;2022-10-18T08:31:03;18.40;99.90
2162;DHT22;1087;50.226;8.682;2022-10-18T08:33:29;18.40;99.90
2162;DHT22;1087;50.226;8.682;2022-10-18T08:35:59;18.40;99.90
2162;DHT22;1087;50.226;8.682;2022-10-18T08:38:27;18.50;99.90
2162;DHT22;1087;50.226;8.682;2022-10-18T08:40:53;18.50;99.90
2162;DHT22;1087;50.226;8.682;2022-10-18T08:43:24;18.50;99.90
2162;DHT22;1087;50.226;8.682;2022-10-18T08:45:52;18.40;99.90
2162;DHT22;1087;50.226;8.682;2022-10-18T08:48:31;18.40;99.90
2162;DHT22;1087;50.226;8.682;2022-10-18T08:50:58;18.40;99.90
2162;DHT22;1087;50.226;8.682;2022-10-18T08:53:50;18.40;99.90
2162;DHT22;1087;50.226;8.682;2022-10-18T08:56:19;18.40;99.90
2162;DHT22;1087;50.226;8.682;2022-10-18T08:58:48;18.60;99.90
2162;DHT22;1087;50.226;8.682;2022-10-18T09:01:22;18.50;99.90
2162;DHT22;1087;50.226;8.682;2022-10-18T09:06:34;18.60;99.90
2162;DHT22;1087;50.226;8.682;2022-10-18T09:14:47;18.50;99.90
2162;DHT22;1087;50.226;8.682;2022-10-18T09:20:43;18.50;99.90
2162;DHT22;1087;50.226;8.682;2022-10-18T09:23:03;18.60;99.90
2162;DHT22;1087;50.226;8.682;2022-10-18T09:25:59;18.60;99.90
2162;DHT22;1087;50.226;8.682;2022-10-18T09:31:41;18.60;99.90
2162;DHT22;1087;50.226;8.682;2022-10-18T09:34:29;18.60;99.90
2162;DHT22;1087;50.226;8.682;2022-10-18T09:36:56;18.60;99.90
2162;DHT22;1087;50.226;8.682;2022-10-18T09:39:24;18.60;99.90
2162;DHT22;1087;50.226;8.682;2022-10-18T09:41:56;18.70;99.90
2162;DHT22;1087;50.226;8.682;2022-10-18T09:44:29;18.70;99.90
2162;DHT22;1087;50.226;8.682;2022-10-18T09:47:09;18.70;99.90
2162;DHT22;1087;50.226;8.682;2022-10-18T09:49:46;18.70;99.90
2162;DHT22;1087;50.226;8.682;2022-10-18T09:52:27;18.70;99.90
2162;DHT22;1087;50.226;8.682;2022-10-18T09:54:57;18.70;99.90
2162;DHT22;1087;50.226;8.682;2022-10-18T09:57:34;18.60;99.90
2162;DHT22;1087;50.226;8.682;2022-10-18T10:00:05;18.60;99.90
2162;DHT22;1087;50.226;8.682;2022-10-18T10:02:37;18.70;99.90
2162;DHT22;1087;50.226;8.682;2022-10-18T10:05:02;18.60;99.90
2162;DHT22;1087;50.226;8.682;2022-10-18T10:07:33;18.60;99.90
2162;DHT22;1087;50.226;8.682;2022-10-18T10:10:25;18.60;99.90
2162;DHT22;1087;50.226;8.682;2022-10-18T10:13:09;18.60;99.90
2162;DHT22;1087;50.226;8.682;2022-10-18T10:15:38;18.70;99.90
2162;DHT22;1087;50.226;8.682;2022-10-18T10:20:51;18.70;99.90
2162;DHT22;1087;50.226;8.682;2022-10-18T10:23:26;18.70;99.90
2162;DHT22;1087;50.226;8.682;2022-10-18T10:25:58;18.70;99.90
2162;DHT22;1087;50.226;8.682;2022-10-18T10:28:28;18.80;99.90
2162;DHT22;1087;50.226;8.682;2022-10-18T10:34:19;18.70;99.90
2162;DHT22;1087;50.226;8.682;2022-10-18T10:36:49;18.80;99.90
2162;DHT22;1087;50.226;8.682;2022-10-18T10:39:17;18.80;99.90
2162;DHT22;1087;50.226;8.682;2022-10-18T10:41:57;18.80;99.90
2162;DHT22;1087;50.226;8.682;2022-10-18T10:44:27;18.80;99.90
2162;DHT22;1087;50.226;8.682;2022-10-18T10:46:53;18.80;99.90
2162;DHT22;1087;50.226;8.682;2022-10-18T10:49:21;18.80;99.90
2162;DHT22;1087;50.226;8.682;2022-10-18T10:52:01;18.80;99.90
2162;DHT22;1087;50.226;8.682;2022-10-18T10:54:29;18.90;99.90
2162;DHT22;1087;50.226;8.682;2022-10-18T10:57:04;18.90;99.90
2162;DHT22;1087;50.226;8.682;2022-10-18T10:59:56;18.90;99.90
2162;DHT22;1087;50.226;8.682;2022-10-18T11:04:55;18.90;99.90
2162;DHT22;1087;50.226;8.682;2022-10-18T11:07:37;18.90;99.90
2162;DHT22;1087;50.226;8.682;2022-10-18T11:10:07;18.90;99.90
2162;DHT22;1087;50.226;8.682;2022-10-18T11:15:28;18.90;99.90
2162;DHT22;1087;50.226;8.682;2022-10-18T11:20:45;19.00;99.90
2162;DHT22;1087;50.226;8.682;2022-10-18T11:23:15;19.00;99.90
2162;DHT22;1087;50.226;8.682;2022-10-18T11:31:31;19.10;99.90
2162;DHT22;1087;50.226;8.682;2022-10-18T11:36:36;19.20;99.90
2162;DHT22;1087;50.226;8.682;2022-10-18T11:42:02;19.10;99.90
2162;DHT22;1087;50.226;8.682;2022-10-18T11:44:40;19.10;99.90
2162;DHT22;1087;50.226;8.682;2022-10-18T11:47:12;19.20;99.90
2162;DHT22;1087;50.226;8.682;2022-10-18T12:00:32;19.20;99.90
2162;DHT22;1087;50.226;8.682;2022-10-18T12:05:40;19.20;99.90
2162;DHT22;1087;50.226;8.682;2022-10-18T12:08:20;19.30;99.90
2162;DHT22;1087;50.226;8.682;2022-10-18T12:10:50;19.30;99.90
2162;DHT22;1087;50.226;8.682;2022-10-18T12:14:06;19.30;99.90
2162;DHT22;1087;50.226;8.682;2022-10-18T12:16:07;19.30;99.90
2162;DHT22;1087;50.226;8.682;2022-10-18T12:18:35;19.30;99.90
2162;DHT22;1087;50.226;8.682;2022-10-18T12:21:05;19.40;99.90
2162;DHT22;1087;50.226;8.682;2022-10-18T12:24:02;19.40;99.90
2162;DHT22;1087;50.226;8.682;2022-10-18T12:26:31;19.40;99.90
2162;DHT22;1087;50.226;8.682;2022-10-18T12:29:07;19.40;99.90
2162;DHT22;1087;50.226;8.682;2022-10-18T12:31:44;19.40;99.90
2162;DHT22;1087;50.226;8.682;2022-10-18T12:37:20;19.30;99.90
2162;DHT22;1087;50.226;8.682;2022-10-18T12:39:55;19.30;99.90
2162;DHT22;1087;50.226;8.682;2022-10-18T12:42:25;19.40;99.90
2162;DHT22;1087;50.226;8.682;2022-10-18T12:45:06;19.40;99.90
2162;DHT22;1087;50.226;8.682;2022-10-18T12:47:42;19.40;99.90
2162;DHT22;1087;50.226;8.682;2022-10-18T12:53:06;19.40;99.90
2162;DHT22;1087;50.226;8.682;2022-10-18T12:55:35;19.30;99.90
2162;DHT22;1087;50.226;8.682;2022-10-18T13:24:33;19.30;99.90
2162;DHT22;1087;50.226;8.682;2022-10-18T13:29:54;19.30;99.90
2162;DHT22;1087;50.226;8.682;2022-10-18T13:35:55;19.40;99.90
2162;DHT22;1087;50.226;8.682;2022-10-18T13:38:40;19.60;99.90
2162;DHT22;1087;50.226;8.682;2022-10-18T13:41:12;19.60;99.90
2162;DHT22;1087;50.226;8.682;2022-10-18T14:00:47;19.90;99.90
2162;DHT22;1087;50.226;8.682;2022-10-18T14:04:14;19.90;99.90
2162;DHT22;1087;50.226;8.682;2022-10-18T14:06:23;19.80;99.90
2162;DHT22;1087;50.226;8.682;2022-10-18T14:11:32;19.90;99.90
2162;DHT22;1087;50.226;8.682;2022-10-18T14:14:10;19.90;99.90
2162;DHT22;1087;50.226;8.682;2022-10-18T14:16:49;20.00;99.90
2162;DHT22;1087;50.226;8.682;2022-10-18T14:19:30;20.00;99.90
2162;DHT22;1087;50.226;8.682;2022-10-18T14:22:17;19.90;99.90
2162;DHT22;1087;50.226;8.682;2022-10-18T14:24:45;20.00;99.90
2162;DHT22;1087;50.226;8.682;2022-10-18T14:27:18;19.90;99.90
2162;DHT22;1087;50.226;8.682;2022-10-18T14:29:44;19.90;99.90
2162;DHT22;1087;50.226;8.682;2022-10-18T14:32:24;19.90;99.90
2162;DHT22;1087;50.226;8.682;2022-10-18T14:34:51;19.90;99.90
2162;DHT22;1087;50.226;8.682;2022-10-18T14:37:37;19.90;99.90
2162;DHT22;1087;50.226;8.682;2022-10-18T14:40:03;19.80;99.90
2162;DHT22;1087;50.226;8.682;2022-10-18T14:42:29;19.80;99.90
2162;DHT22;1087;50.226;8.682;2022-10-18T14:44:55;19.80;99.90
2162;DHT22;1087;50.226;8.682;2022-10-18T14:47:23;19.90;99.90
2162;DHT22;1087;50.226;8.682;2022-10-18T14:49:50;19.80;99.90
2162;DHT22;1087;50.226;8.682;2022-10-18T14:52:20;19.60;99.90
2162;DHT22;1087;50.226;8.682;2022-10-18T14:54:47;19.60;99.90
2162;DHT22;1087;50.226;8.682;2022-10-18T14:57:18;19.60;99.90
2162;DHT22;1087;50.226;8.682;2022-10-18T14:59:48;19.70;99.90
2162;DHT22;1087;50.226;8.682;2022-10-18T15:02:20;19.80;99.90
2162;DHT22;1087;50.226;8.682;2022-10-18T15:04:54;19.80;99.90
2162;DHT22;1087;50.226;8.682;2022-10-18T15:07:20;19.80;99.90
2162;DHT22;1087;50.226;8.682;2022-10-18T15:09:46;19.70;99.90
2162;DHT22;1087;50.226;8.682;2022-10-18T15:12:13;19.70;99.90
2162;DHT22;1087;50.226;8.682;2022-10-18T15:14:40;19.70;99.90
2162;DHT22;1087;50.226;8.682;2022-10-18T15:17:13;19.70;99.90
2162;DHT22;1087;50.226;8.682;2022-10-18T15:19:56;19.70;99.90
2162;DHT22;1087;50.226;8.682;2022-10-18T15:22:27;19.80;99.90
2162;DHT22;1087;50.226;8.682;2022-10-18T15:27:39;19.60;99.90
2162;DHT22;1087;50.226;8.682;2022-10-18T15:30:36;19.60;99.90
2162;DHT22;1087;50.226;8.682;2022-10-18T15:33:03;19.60;99.90
2162;DHT22;1087;50.226;8.682;2022-10-18T15:35:31;19.70;99.90
2162;DHT22;1087;50.226;8.682;2022-10-18T15:37:59;19.70;99.90
2162;DHT22;1087;50.226;8.682;2022-10-18T15:40:29;19.70;99.90
2162;DHT22;1087;50.226;8.682;2022-10-18T15:43:48;19.70;99.90
2162;DHT22;1087;50.226;8.682;2022-10-18T15:45:51;19.70;99.90
2162;DHT22;1087;50.226;8.682;2022-10-18T15:48:43;19.60;99.90
2162;DHT22;1087;50.226;8.682;2022-10-18T15:51:47;19.70;99.90
2162;DHT22;1087;50.226;8.682;2022-10-18T15:54:17;19.60;99.90
2162;DHT22;1087;50.226;8.682;2022-10-18T15:56:43;19.60;99.90
2162;DHT22;1087;50.226;8.682;2022-10-18T15:59:24;19.60;99.90
2162;DHT22;1087;50.226;8.682;2022-10-18T16:01:50;19.60;99.90
2162;DHT22;1087;50.226;8.682;2022-10-18T16:04:21;19.60;99.90
2162;DHT22;1087;50.226;8.682;2022-10-18T16:06:47;19.60;99.90
2162;DHT22;1087;50.226;8.682;2022-10-18T16:09:16;19.60;99.90
2162;DHT22;1087;50.226;8.682;2022-10-18T16:11:42;19.60;99.90
2162;DHT22;1087;50.226;8.682;2022-10-18T16:14:07;19.60;99.90
2162;DHT22;1087;50.226;8.682;2022-10-18T16:16:33;19.60;99.90
2162;DHT22;1087;50.226;8.682;2022-10-18T16:18:59;19.60;99.90
2162;DHT22;1087;50.226;8.682;2022-10-18T16:21:44;19.70;99.90
2162;DHT22;1087;50.226;8.682;2022-10-18T16:24:09;19.70;99.90
2162;DHT22;1087;50.226;8.682;2022-10-18T16:26:35;19.60;99.90
2162;DHT22;1087;50.226;8.682;2022-10-18T16:29:01;19.60;99.90
2162;DHT22;1087;50.226;8.682;2022-10-18T16:31:30;19.60;99.90
2162;DHT22;1087;50.226;8.682;2022-10-18T16:33:56;19.60;99.90
2162;DHT22;1087;50.226;8.682;2022-10-18T16:36:24;19.60;99.90
2162;DHT22;1087;50.226;8.682;2022-10-18T16:38:50;19.60;99.90
2162;DHT22;1087;50.226;8.682;2022-10-18T16:41:17;19.60;99.90
2162;DHT22;1087;50.226;8.682;2022-10-18T16:43:44;19.50;99.90
2162;DHT22;1087;50.226;8.682;2022-10-18T16:46:14;19.50;99.90
2162;DHT22;1087;50.226;8.682;2022-10-18T16:48:41;19.50;99.90
2162;DHT22;1087;50.226;8.682;2022-10-18T16:51:08;19.50;99.90
2162;DHT22;1087;50.226;8.682;2022-10-18T16:53:34;19.50;99.90
2162;DHT22;1087;50.226;8.682;2022-10-18T16:56:01;19.40;99.90
2162;DHT22;1087;50.226;8.682;2022-10-18T16:58:28;19.40;99.90
2162;DHT22;1087;50.226;8.682;2022-10-18T17:00:54;19.30;99.90
2162;DHT22;1087;50.226;8.682;2022-10-18T17:03:20;19.30;99.90
2162;DHT22;1087;50.226;8.682;2022-10-18T17:05:46;19.30;99.90
2162;DHT22;1087;50.226;8.682;2022-10-18T17:08:23;19.30;99.90
2162;DHT22;1087;50.226;8.682;2022-10-18T17:10:50;19.20;99.90
2162;DHT22;1087;50.226;8.682;2022-10-18T17:13:20;19.20;99.90
2162;DHT22;1087;50.226;8.682;2022-10-18T17:15:46;19.20;99.90
2162;DHT22;1087;50.226;8.682;2022-10-18T17:18:14;19.20;99.90
2162;DHT22;1087;50.226;8.682;2022-10-18T17:20:41;19.20;99.90
2162;DHT22;1087;50.226;8.682;2022-10-18T17:23:07;19.10;99.90
2162;DHT22;1087;50.226;8.682;2022-10-18T17:25:35;19.10;99.90
2162;DHT22;1087;50.226;8.682;2022-10-18T17:28:00;19.10;99.90
2162;DHT22;1087;50.226;8.682;2022-10-18T17:30:26;19.10;99.90
2162;DHT22;1087;50.226;8.682;2022-10-18T17:32:51;19.10;99.90
2162;DHT22;1087;50.226;8.682;2022-10-18T17:35:17;19.10;99.90
2162;DHT22;1087;50.226;8.682;2022-10-18T17:37:49;19.10;99.90
2162;DHT22;1087;50.226;8.682;2022-10-18T17:40:16;19.10;99.90
2162;DHT22;1087;50.226;8.682;2022-10-18T17:42:41;19.00;99.90
2162;DHT22;1087;50.226;8.682;2022-10-18T17:45:08;19.00;99.90
2162;DHT22;1087;50.226;8.682;2022-10-18T17:47:33;19.00;99.90
2162;DHT22;1087;50.226;8.682;2022-10-18T17:49:59;18.90;99.90
2162;DHT22;1087;50.226;8.682;2022-10-18T17:52:24;18.90;99.90
2162;DHT22;1087;50.226;8.682;2022-10-18T17:54:50;18.90;99.90
2162;DHT22;1087;50.226;8.682;2022-10-18T17:57:15;18.90;99.90
2162;DHT22;1087;50.226;8.682;2022-10-18T17:59:41;18.90;99.90
2162;DHT22;1087;50.226;8.682;2022-10-18T18:02:09;18.90;99.90
2162;DHT22;1087;50.226;8.682;2022-10-18T18:04:35;18.80;99.90
2162;DHT22;1087;50.226;8.682;2022-10-18T18:07:00;18.80;99.90
2162;DHT22;1087;50.226;8.682;2022-10-18T18:09:28;18.80;99.90
2162;DHT22;1087;50.226;8.682;2022-10-18T18:11:54;18.80;99.90
2162;DHT22;1087;50.226;8.682;2022-10-18T18:14:20;18.80;99.90
2162;DHT22;1087;50.226;8.682;2022-10-18T18:16:46;18.80;99.90
2162;DHT22;1087;50.226;8.682;2022-10-18T18:19:13;18.70;99.90
2162;DHT22;1087;50.226;8.682;2022-10-18T18:21:39;18.70;99.90
2162;DHT22;1087;50.226;8.682;2022-10-18T18:24:05;18.70;99.90
2162;DHT22;1087;50.226;8.682;2022-10-18T18:26:32;18.70;99.90
2162;DHT22;1087;50.226;8.682;2022-10-18T18:28:58;18.70;99.90
2162;DHT22;1087;50.226;8.682;2022-10-18T18:31:24;18.70;99.90
2162;DHT22;1087;50.226;8.682;2022-10-18T18:33:51;18.60;99.90